Terminal Aerodrome Forecast
Issued by NWS Jacksonville, FL

Home | Current Version | Previous Version | Text Only | Print | Product List | Glossary On
Versions: 1 2 3 4 5 6 7 8 9 10 11 12 13 14 15 16 17 18 19 20 21 22 23 24 25 26
000
FTUS42 KJAX 060656 AAC
TAFJAX
TAF AMD
KJAX 060656Z 0607/0706 00000KT 1/2SM FG BKN002 BKN250
     FM060900 00000KT 5SM BR SCT002 BKN250
      TEMPO 0609/0612 2SM BR
     FM061300 26007KT P6SM SCT025 SCT250
     FM062000 14009KT P6SM VCTS SCT045CB SCT150 BKN250 PROB30
      0621/0624 VRB15G25KT 3SM TSRA BR SCT020 BKN035CB OVC090
     FM070000 18006KT P6SM VCSH SCT030 BKN090 OVC250=

USA.gov is the U.S. government's official web portal to all federal, state and local government web resources and services.